createdAt,value
2023-03-22T00:02:17.285Z,95.80
2023-03-22T00:04:46.571Z,95.80
2023-03-22T00:07:16.025Z,96.00
2023-03-22T00:09:45.643Z,95.90
2023-03-22T00:12:15.466Z,95.90
2023-03-22T00:14:45.453Z,95.80
2023-03-22T00:17:14.814Z,95.90
2023-03-22T00:19:44.906Z,95.80
2023-03-22T00:22:14.625Z,95.90
2023-03-22T00:24:44.103Z,96.00
2023-03-22T00:27:14.284Z,96.00
2023-03-22T00:29:43.699Z,96.10
2023-03-22T00:32:13.078Z,96.10
2023-03-22T00:34:42.395Z,96.10
2023-03-22T00:37:11.775Z,96.10
2023-03-22T00:39:41.089Z,96.10
2023-03-22T00:42:10.473Z,96.10
2023-03-22T00:44:39.991Z,96.20
2023-03-22T00:47:09.427Z,96.10
2023-03-22T00:49:38.800Z,96.10
2023-03-22T00:52:08.239Z,96.00
2023-03-22T00:54:37.742Z,96.00
2023-03-22T00:57:07.752Z,96.10
2023-03-22T00:59:38.607Z,96.00
2023-03-22T01:02:08.226Z,96.00
2023-03-22T01:04:37.673Z,95.90
2023-03-22T01:07:07.904Z,95.90
2023-03-22T01:09:37.934Z,95.90
2023-03-22T01:12:07.444Z,95.90
2023-03-22T01:14:37.044Z,95.80
2023-03-22T01:17:07.406Z,95.60
2023-03-22T01:19:38.021Z,95.60
2023-03-22T01:22:08.685Z,95.70
2023-03-22T01:24:38.434Z,95.60
2023-03-22T01:27:07.915Z,95.60
2023-03-22T01:29:37.287Z,95.40
2023-03-22T01:32:06.930Z,95.30
2023-03-22T01:34:36.373Z,95.20
2023-03-22T01:37:06.021Z,95.10
2023-03-22T01:39:35.945Z,95.10
2023-03-22T01:42:06.982Z,95.10
2023-03-22T01:44:39.159Z,95.10
2023-03-22T01:47:11.543Z,94.90
2023-03-22T01:49:41.595Z,94.90
2023-03-22T01:52:14.464Z,94.80
2023-03-22T01:54:53.461Z,94.60
2023-03-22T01:57:25.488Z,94.70
2023-03-22T01:59:55.485Z,94.70
2023-03-22T02:02:30.780Z,94.90
2023-03-22T02:05:04.035Z,95.00
2023-03-22T02:07:33.607Z,95.10
2023-03-22T02:10:04.991Z,95.10
2023-03-22T02:12:53.880Z,95.20
2023-03-22T02:15:50.045Z,95.20
2023-03-22T02:18:39.070Z,95.30
2023-03-22T02:21:14.415Z,95.40
2023-03-22T02:24:02.050Z,95.50
2023-03-22T02:26:47.157Z,95.40
2023-03-22T02:29:34.816Z,95.50
2023-03-22T02:32:26.848Z,95.30
2023-03-22T02:35:34.117Z,95.40
2023-03-22T02:38:21.321Z,95.30
2023-03-22T02:41:06.378Z,95.30
2023-03-22T02:44:00.034Z,95.30
2023-03-22T02:46:38.144Z,95.40
2023-03-22T02:49:16.557Z,95.30
2023-03-22T02:51:51.765Z,95.20
2023-03-22T02:54:24.220Z,95.20
2023-03-22T02:57:14.592Z,95.20
2023-03-22T02:59:43.309Z,95.20
2023-03-22T03:02:17.059Z,95.10
2023-03-22T03:04:49.479Z,94.90
2023-03-22T03:07:21.862Z,94.80
2023-03-22T03:09:52.634Z,94.80
2023-03-22T03:12:25.167Z,94.80
2023-03-22T03:14:56.656Z,94.70
2023-03-22T03:17:51.068Z,94.70
2023-03-22T03:21:00.289Z,94.60
2023-03-22T03:23:54.062Z,94.50
2023-03-22T03:26:41.857Z,94.70
2023-03-22T03:29:37.096Z,94.70
2023-03-22T03:32:09.606Z,94.90
2023-03-22T03:35:15.416Z,95.00
2023-03-22T03:37:50.779Z,95.00
2023-03-22T03:40:23.176Z,95.20
2023-03-22T03:42:55.876Z,95.20
2023-03-22T03:45:26.419Z,95.20
2023-03-22T03:48:02.022Z,95.20
2023-03-22T03:50:31.877Z,95.30
2023-03-22T03:53:01.666Z,95.40
2023-03-22T03:55:31.600Z,95.40
2023-03-22T03:58:01.122Z,95.40
2023-03-22T04:00:31.101Z,95.50
2023-03-22T04:03:02.211Z,95.50
2023-03-22T04:05:34.039Z,95.50
2023-03-22T04:08:03.480Z,95.50
2023-03-22T04:10:34.305Z,95.50
2023-03-22T04:13:03.725Z,95.50
2023-03-22T04:15:33.808Z,95.50
2023-03-22T04:18:05.054Z,95.50
2023-03-22T04:20:34.475Z,95.50
2023-03-22T04:23:03.904Z,95.40
2023-03-22T04:25:33.937Z,95.30
2023-03-22T04:28:09.606Z,95.30
2023-03-22T04:30:39.701Z,95.30
2023-03-22T04:33:15.180Z,95.30
2023-03-22T04:36:04.563Z,95.20
2023-03-22T04:38:35.428Z,95.20
2023-03-22T04:41:05.456Z,95.10
2023-03-22T04:43:38.245Z,95.00
2023-03-22T04:46:11.877Z,95.00
2023-03-22T04:48:43.517Z,95.00
2023-03-22T04:51:13.312Z,95.00
2023-03-22T04:53:44.977Z,94.90
2023-03-22T04:56:16.236Z,95.00
2023-03-22T04:58:47.018Z,95.10
2023-03-22T05:01:16.560Z,95.20
2023-03-22T05:03:47.419Z,95.20
2023-03-22T05:06:18.623Z,95.00
2023-03-22T05:08:49.713Z,95.00
2023-03-22T05:11:20.406Z,95.00
2023-03-22T05:13:51.441Z,95.00
2023-03-22T05:16:21.107Z,95.00
2023-03-22T05:18:54.452Z,94.80
2023-03-22T05:21:28.704Z,94.80
2023-03-22T05:24:00.340Z,94.80
2023-03-22T05:26:29.950Z,94.70
2023-03-22T05:28:59.864Z,94.70
2023-03-22T05:31:32.829Z,94.70
2023-03-22T05:34:03.900Z,94.70
2023-03-22T05:36:36.566Z,94.70
2023-03-22T05:39:25.331Z,94.70
2023-03-22T05:41:55.110Z,94.70
2023-03-22T05:44:24.624Z,94.70
2023-03-22T05:46:55.793Z,94.70
2023-03-22T05:49:27.147Z,94.80
2023-03-22T05:51:56.546Z,94.70
2023-03-22T05:54:27.638Z,94.70
2023-03-22T05:56:57.076Z,94.70
2023-03-22T05:59:26.523Z,94.80
2023-03-22T06:01:55.993Z,94.70
2023-03-22T06:04:25.521Z,94.70
2023-03-22T06:06:59.726Z,94.60
2023-03-22T06:09:30.970Z,94.80
2023-03-22T06:12:01.773Z,94.70
2023-03-22T06:14:31.286Z,94.90
2023-03-22T06:17:02.555Z,95.00
2023-03-22T06:19:32.303Z,94.90
2023-03-22T06:22:03.392Z,94.80
2023-03-22T06:24:34.171Z,94.70
2023-03-22T06:27:03.922Z,94.70
2023-03-22T06:29:33.879Z,94.70
2023-03-22T06:32:04.698Z,94.90
2023-03-22T06:34:33.836Z,94.70
2023-03-22T06:37:03.331Z,94.50
2023-03-22T06:39:37.141Z,94.70
2023-03-22T06:42:07.244Z,94.80
2023-03-22T06:44:36.668Z,95.10
2023-03-22T06:47:11.588Z,95.30
2023-03-22T06:49:48.751Z,95.00
2023-03-22T06:52:20.523Z,94.90
2023-03-22T06:54:50.088Z,94.70
2023-03-22T06:57:19.579Z,94.60
2023-03-22T06:59:48.958Z,94.40
2023-03-22T07:02:18.343Z,94.10
2023-03-22T07:04:49.401Z,94.20
2023-03-22T07:07:18.878Z,94.20
2023-03-22T07:09:48.431Z,94.20
2023-03-22T07:12:18.743Z,94.50
2023-03-22T07:14:48.990Z,97.20
2023-03-22T07:17:22.734Z,96.10
2023-03-22T07:19:52.062Z,96.50
2023-03-22T07:22:22.477Z,94.10
2023-03-22T07:24:58.328Z,92.60
2023-03-22T07:27:25.872Z,91.90
2023-03-22T07:29:55.393Z,91.50
2023-03-22T07:32:24.963Z,91.50
2023-03-22T07:35:02.274Z,91.10
2023-03-22T07:37:31.709Z,91.40
2023-03-22T07:40:01.492Z,91.50
2023-03-22T07:42:32.260Z,91.70
2023-03-22T07:45:21.262Z,93.70
2023-03-22T07:47:58.410Z,92.60
2023-03-22T07:50:36.020Z,93.10
2023-03-22T07:53:06.812Z,92.00
2023-03-22T07:55:36.996Z,91.30
2023-03-22T07:58:07.148Z,90.90
2023-03-22T08:00:37.048Z,90.50
2023-03-22T08:03:08.455Z,90.50
2023-03-22T08:05:59.012Z,91.10
2023-03-22T08:08:28.521Z,91.60
2023-03-22T08:10:57.975Z,91.20
2023-03-22T08:13:27.556Z,90.80
2023-03-22T08:15:57.345Z,91.50
2023-03-22T08:18:26.952Z,90.90
2023-03-22T08:20:58.027Z,91.30
2023-03-22T08:23:40.873Z,89.90
2023-03-22T08:26:18.950Z,88.30
2023-03-22T08:28:48.486Z,88.10
2023-03-22T08:31:18.599Z,88.00
2023-03-22T08:33:47.998Z,87.70
2023-03-22T08:36:20.403Z,86.70
2023-03-22T08:38:56.372Z,86.80
2023-03-22T08:41:31.216Z,86.70
2023-03-22T08:44:01.618Z,85.80
2023-03-22T08:46:31.539Z,86.20
2023-03-22T08:49:02.446Z,86.30
2023-03-22T08:51:40.237Z,86.00
2023-03-22T08:54:14.386Z,86.60
2023-03-22T08:56:48.137Z,86.70
2023-03-22T08:59:19.330Z,86.70
2023-03-22T09:01:50.475Z,86.40
2023-03-22T09:04:19.916Z,87.00
2023-03-22T09:06:49.526Z,87.10
2023-03-22T09:09:19.215Z,87.90
2023-03-22T09:11:50.489Z,87.80
2023-03-22T09:14:19.996Z,86.90
2023-03-22T09:16:49.883Z,87.30
2023-03-22T09:19:19.992Z,87.00
2023-03-22T09:21:50.123Z,85.90
2023-03-22T09:24:21.626Z,85.90
2023-03-22T09:26:52.783Z,86.10
2023-03-22T09:29:22.272Z,86.10
2023-03-22T09:31:51.736Z,86.80
2023-03-22T09:34:25.845Z,87.40
2023-03-22T09:36:57.435Z,86.70
2023-03-22T09:39:28.795Z,85.90
2023-03-22T09:42:02.394Z,85.90
2023-03-22T09:44:35.054Z,85.80
2023-03-22T09:47:07.313Z,85.40
2023-03-22T09:49:52.589Z,85.80
2023-03-22T09:52:16.769Z,85.90
2023-03-22T09:54:48.009Z,85.40
2023-03-22T09:57:35.355Z,85.00
2023-03-22T10:00:09.426Z,84.30
2023-03-22T10:03:08.923Z,85.00
2023-03-22T10:06:04.125Z,85.00
2023-03-22T10:08:45.839Z,84.60
2023-03-22T10:11:38.923Z,84.50
2023-03-22T10:14:23.459Z,83.90
2023-03-22T10:16:56.540Z,84.40
2023-03-22T10:19:29.042Z,83.40
2023-03-22T10:22:02.180Z,84.30
2023-03-22T10:24:34.737Z,83.50
2023-03-22T10:27:04.599Z,83.80
2023-03-22T10:29:37.049Z,84.60
2023-03-22T10:32:15.654Z,84.20
2023-03-22T10:34:46.559Z,83.80
2023-03-22T10:37:24.861Z,83.00
2023-03-22T10:39:57.017Z,82.80
2023-03-22T10:42:29.683Z,83.00
2023-03-22T10:45:10.950Z,82.90
2023-03-22T10:47:43.397Z,82.70
2023-03-22T10:50:28.692Z,82.40
2023-03-22T10:53:09.548Z,83.10
2023-03-22T10:55:44.170Z,82.00
2023-03-22T10:58:19.745Z,82.20
2023-03-22T11:00:52.296Z,81.90
2023-03-22T11:03:30.954Z,81.50
2023-03-22T11:06:02.970Z,81.40
2023-03-22T11:08:41.078Z,81.50
2023-03-22T11:11:27.957Z,81.20
2023-03-22T11:14:12.314Z,81.60
2023-03-22T11:16:56.465Z,80.50
2023-03-22T11:19:28.485Z,80.90
2023-03-22T11:21:59.793Z,80.70
2023-03-22T11:24:34.623Z,80.60
2023-03-22T11:27:10.141Z,79.60
2023-03-22T11:29:45.350Z,80.00
2023-03-22T11:32:38.443Z,80.30
2023-03-22T11:35:20.493Z,80.20
2023-03-22T11:37:55.467Z,80.20
2023-03-22T11:40:27.441Z,80.10
2023-03-22T11:42:59.310Z,79.60
2023-03-22T11:45:31.734Z,80.00
2023-03-22T11:48:09.771Z,79.20
2023-03-22T11:50:41.775Z,79.20
2023-03-22T11:53:16.826Z,78.50
2023-03-22T11:55:49.001Z,79.00
2023-03-22T11:58:24.307Z,80.00
2023-03-22T12:00:56.444Z,79.50
2023-03-22T12:03:29.031Z,79.20
2023-03-22T12:06:01.554Z,78.80
2023-03-22T12:08:51.970Z,78.00
2023-03-22T12:11:37.384Z,78.90
2023-03-22T12:14:18.901Z,78.60
2023-03-22T12:16:54.015Z,77.60
2023-03-22T12:19:38.212Z,78.40
2023-03-22T12:22:16.620Z,78.30
2023-03-22T12:24:46.739Z,77.70
2023-03-22T12:27:22.257Z,78.10
2023-03-22T12:30:15.854Z,78.50
2023-03-22T12:32:48.357Z,78.00
2023-03-22T12:35:20.782Z,76.50
2023-03-22T12:37:53.358Z,75.80
2023-03-22T12:40:25.807Z,76.40
2023-03-22T12:43:19.369Z,76.50
2023-03-22T12:45:53.235Z,76.60
2023-03-22T12:48:28.254Z,75.10
2023-03-22T12:51:03.645Z,75.20
2023-03-22T12:53:43.751Z,73.90
2023-03-22T12:56:19.246Z,74.30
2023-03-22T12:58:51.816Z,74.80
2023-03-22T13:01:39.696Z,75.20
2023-03-22T13:04:31.599Z,74.80
2023-03-22T13:07:13.035Z,74.70
2023-03-22T13:09:44.960Z,75.30
2023-03-22T13:12:20.345Z,75.90
2023-03-22T13:15:04.550Z,75.20
2023-03-22T13:17:36.735Z,74.40
2023-03-22T13:20:12.096Z,72.70
2023-03-22T13:22:44.593Z,72.90
2023-03-22T13:25:19.701Z,73.30
2023-03-22T13:27:55.236Z,73.30
2023-03-22T13:30:28.208Z,74.30
2023-03-22T13:33:09.818Z,73.10
2023-03-22T13:35:48.695Z,72.80
2023-03-22T13:38:30.271Z,72.60
2023-03-22T13:41:08.851Z,73.10
2023-03-22T13:43:41.287Z,73.20
2023-03-22T13:46:16.612Z,73.10
2023-03-22T13:48:52.310Z,73.00
2023-03-22T13:51:29.525Z,72.00
2023-03-22T13:54:05.350Z,71.90
2023-03-22T13:56:47.691Z,72.00
2023-03-22T13:59:33.851Z,72.50
2023-03-22T14:02:06.487Z,72.00
2023-03-22T14:04:48.092Z,72.10
2023-03-22T14:07:45.628Z,71.20
2023-03-22T14:10:23.523Z,71.90
2023-03-22T14:13:04.785Z,71.70
2023-03-22T14:15:37.250Z,72.00
2023-03-22T14:18:27.982Z,71.90
2023-03-22T14:21:00.376Z,72.20
